Shrewsbury, Louisiana
Current Conditions -  °F | °C
As of 4:35 PM on Friday 24 Oct 2014 (Local Time) from KVSH Reporting Station
Clear Clear  
Wind Chill: 75°   Ceiling: Unl
Heat Index: 75°   Visibility: 10mi
Dew Point: 45°   Wind: 3mph
Humidity: 34%   Direction: 330°NNW
Pressure: 30.04"   Gusts: NA
Location:  29.9622°N, 90.1597°W
Report Text: KVSH 242135Z AUTO 33003KT 10SM CLR 24/07 A3004 RMK AO1
Loading
Personal Weather Stations






























Interactive Weather Map
Tropical Storm Tracking
New forecast layout! Learn more

10-Day Weather Forecast

Advertisements
Track Severe Weather on mobile